Time;durP1;ratioP1;P1;durP2;ratioP2;P2;SDS_P1;SDS_P2;PMS_P1;PMS_P2;Temp;Humidity;BMP_temperature;BMP_pressure;BME280_temperature;BME280_humidity;BME280_pressure;Samples;Min_cycle;Max_cycle;Signal;HPM_P1;HPM_P2
2023/12/25 06:00:54;;;;;;;3.40;1.40;;;;;;;;;;6027289;23;20448;-78
2023/12/25 06:03:20;;;;;;;2.50;1.43;;;;;;;;;;4972440;28;20432;-78
2023/12/25 06:05:46;;;;;;;1.43;1.20;;;;;;;;;;4971251;28;20471;-77
2023/12/25 06:08:12;;;;;;;1.03;1.00;;;;;;;;;;4972732;28;20453;-78
2023/12/25 06:10:38;;;;;;;1.20;1.13;;;;;;;;;;4971031;28;20528;-78
2023/12/25 06:13:04;;;;;;;1.50;1.40;;;;;;;;;;4972378;28;20440;-78
2023/12/25 06:15:30;;;;;;;2.40;1.20;;;;;;;;;;4973134;28;20780;-78
2023/12/25 06:17:57;;;;;;;2.67;1.40;;;;;;;;;;4975918;28;20426;-78
2023/12/25 06:20:25;;;;;;;1.07;1.07;;;;;;;;;;4975891;28;20455;-77
2023/12/25 06:22:51;;;;;;;1.70;1.30;;;;;;;;;;4976400;28;20411;-78
2023/12/25 06:25:17;;;;;;;1.10;1.00;;;;;;;;;;4976321;28;20744;-77
2023/12/25 06:27:42;;;;;;;1.47;1.23;;;;;;;;;;4975308;28;20415;-77
2023/12/25 06:30:09;;;;;;;1.20;1.10;;;;;;;;;;4975916;28;20411;-77
2023/12/25 06:32:34;;;;;;;1.30;1.23;;;;;;;;;;4975668;28;20746;-77
2023/12/25 06:35:00;;;;;;;3.20;1.20;;;;;;;;;;4975883;28;20411;-77
2023/12/25 06:37:26;;;;;;;3.77;1.30;;;;;;;;;;4974454;28;20419;-78
2023/12/25 06:39:52;;;;;;;1.40;1.30;;;;;;;;;;4975744;28;20439;-77
2023/12/25 06:42:18;;;;;;;1.40;1.07;;;;;;;;;;4983057;28;20462;-78
2023/12/25 06:44:44;;;;;;;1.40;1.40;;;;;;;;;;4994173;28;20915;-78
2023/12/25 06:47:10;;;;;;;2.60;1.10;;;;;;;;;;4994000;28;20466;-79
2023/12/25 06:49:36;;;;;;;4.63;1.30;;;;;;;;;;4977754;28;20414;-79
2023/12/25 06:52:02;;;;;;;1.40;1.10;;;;;;;;;;4975687;28;20439;-78
2023/12/25 06:54:28;;;;;;;1.23;1.13;;;;;;;;;;4975462;28;20412;-78
2023/12/25 06:56:54;;;;;;;1.20;1.17;;;;;;;;;;4975469;28;20937;-78
2023/12/25 06:59:20;;;;;;;1.20;1.10;;;;;;;;;;4975380;28;20862;-79
2023/12/25 07:01:46;;;;;;;5.30;2.30;;;;;;;;;;4975059;28;20990;-77
2023/12/25 07:04:12;;;;;;;4.93;1.40;;;;;;;;;;4974109;28;21272;-77
2023/12/25 07:06:38;;;;;;;1.23;1.20;;;;;;;;;;4975163;28;20466;-77
2023/12/25 07:09:04;;;;;;;1.77;1.67;;;;;;;;;;4975129;28;20454;-77
2023/12/25 07:11:31;;;;;;;2.53;1.30;;;;;;;;;;4975129;28;20432;-76
2023/12/25 07:13:58;;;;;;;1.20;1.17;;;;;;;;;;4973907;28;20474;-77
2023/12/25 07:16:25;;;;;;;1.30;1.27;;;;;;;;;;4973831;28;20474;-79
2023/12/25 07:18:52;;;;;;;1.80;1.30;;;;;;;;;;4973651;28;20459;-78
2023/12/25 07:21:18;;;;;;;1.90;1.50;;;;;;;;;;4974707;28;20447;-77
2023/12/25 07:23:44;;;;;;;2.17;1.80;;;;;;;;;;4973613;28;20463;-77
2023/12/25 07:26:10;;;;;;;3.47;1.30;;;;;;;;;;4973557;28;20467;-78
2023/12/25 07:28:36;;;;;;;1.17;1.13;;;;;;;;;;4974712;28;20416;-78
2023/12/25 07:31:02;;;;;;;1.10;1.00;;;;;;;;;;4974640;28;20436;-78
2023/12/25 07:33:28;;;;;;;1.80;1.40;;;;;;;;;;4974505;28;20404;-78
2023/12/25 07:35:54;;;;;;;1.73;1.63;;;;;;;;;;4974607;28;20416;-78
2023/12/25 07:38:20;;;;;;;1.63;1.37;;;;;;;;;;4973336;28;20424;-78
2023/12/25 07:40:48;;;;;;;2.77;1.40;;;;;;;;;;4974415;28;20446;-78
2023/12/25 07:43:14;;;;;;;2.30;1.13;;;;;;;;;;4973082;28;20416;-77
2023/12/25 07:45:40;;;;;;;2.13;1.30;;;;;;;;;;4974321;28;20518;-78
2023/12/25 07:48:06;;;;;;;1.90;1.30;;;;;;;;;;4974501;28;20462;-78
2023/12/25 07:50:32;;;;;;;1.90;1.13;;;;;;;;;;4974211;28;20803;-78
2023/12/25 07:52:58;;;;;;;1.47;1.37;;;;;;;;;;4974100;28;20419;-78
2023/12/25 07:55:24;;;;;;;1.47;1.13;;;;;;;;;;4974359;28;20419;-79
2023/12/25 07:57:50;;;;;;;2.10;1.50;;;;;;;;;;4972978;28;20419;-78
2023/12/25 08:00:16;;;;;;;1.37;1.27;;;;;;;;;;4972803;28;20421;-78
2023/12/25 08:02:42;;;;;;;1.70;1.37;;;;;;;;;;4973723;28;20424;-78
2023/12/25 08:05:08;;;;;;;1.43;1.30;;;;;;;;;;4974106;28;20551;-78
2023/12/25 08:07:34;;;;;;;1.83;1.23;;;;;;;;;;4973992;28;20463;-78
2023/12/25 08:10:00;;;;;;;1.20;1.10;;;;;;;;;;4974539;28;20416;-77
2023/12/25 08:12:26;;;;;;;2.10;1.30;;;;;;;;;;4973678;28;20438;-78
2023/12/25 08:14:52;;;;;;;1.33;1.20;;;;;;;;;;4973876;28;20412;-78
2023/12/25 08:17:18;;;;;;;2.20;1.20;;;;;;;;;;4973943;28;20416;-77
2023/12/25 08:19:44;;;;;;;1.57;1.00;;;;;;;;;;4972610;28;20420;-78
2023/12/25 08:22:10;;;;;;;5.13;1.83;;;;;;;;;;4973487;28;20930;-78
2023/12/25 08:24:36;;;;;;;1.63;1.30;;;;;;;;;;4973746;28;20992;-79
2023/12/25 08:27:03;;;;;;;1.50;1.40;;;;;;;;;;4973572;28;20459;-78
2023/12/25 08:29:29;;;;;;;2.33;1.50;;;;;;;;;;4973729;28;20447;-78
2023/12/25 08:31:55;;;;;;;1.53;1.20;;;;;;;;;;4973551;28;20467;-77
2023/12/25 08:34:23;;;;;;;2.10;1.47;;;;;;;;;;4973577;28;20415;-78
2023/12/25 08:36:49;;;;;;;1.13;1.03;;;;;;;;;;4973584;28;20462;-77
2023/12/25 08:39:15;;;;;;;2.47;1.30;;;;;;;;;;4972918;28;20416;-78
2023/12/25 08:41:41;;;;;;;3.30;1.30;;;;;;;;;;4973183;28;20961;-77
2023/12/25 08:44:08;;;;;;;2.03;1.40;;;;;;;;;;4973450;28;20411;-78
2023/12/25 08:46:34;;;;;;;1.40;1.30;;;;;;;;;;4973392;28;20825;-78
2023/12/25 08:49:00;;;;;;;2.00;1.33;;;;;;;;;;4973331;28;20439;-78
2023/12/25 08:51:26;;;;;;;2.10;1.17;;;;;;;;;;4973039;28;20939;-77
2023/12/25 08:53:52;;;;;;;1.27;1.23;;;;;;;;;;4972004;28;20781;-77
2023/12/25 08:56:23;;;;;;;1.53;1.47;;;;;;;;;;4973325;28;20427;-78
2023/12/25 08:58:48;;;;;;;4.60;1.50;;;;;;;;;;4973184;28;20420;-78
2023/12/25 09:01:15;;;;;;;1.37;1.27;;;;;;;;;;4971812;28;20546;-78
2023/12/25 09:03:41;;;;;;;1.77;1.37;;;;;;;;;;4973311;28;20448;-78
2023/12/25 09:06:07;;;;;;;1.90;1.40;;;;;;;;;;4971758;28;20541;-78
2023/12/25 09:08:33;;;;;;;1.80;1.40;;;;;;;;;;4973102;28;20423;-78
2023/12/25 09:11:14;;;;;;;1.73;1.20;;;;;;;;;;4972987;28;20427;-79
2023/12/25 09:16:44;;;;;;;2.67;1.77;;;;;;;;;;4972611;28;20447;-78
2023/12/25 09:19:10;;;;;;;2.03;1.50;;;;;;;;;;4971486;28;20895;-77
2023/12/25 09:21:39;;;;;;;2.23;1.40;;;;;;;;;;4972658;28;20920;-77
2023/12/25 09:24:06;;;;;;;1.20;1.10;;;;;;;;;;4973130;28;20412;-78
2023/12/25 09:26:32;;;;;;;15.63;1.73;;;;;;;;;;4972943;28;20458;-78
2023/12/25 09:28:58;;;;;;;2.37;1.57;;;;;;;;;;4972987;28;20408;-78
2023/12/25 09:31:24;;;;;;;2.23;1.80;;;;;;;;;;4972875;28;20515;-77
2023/12/25 09:33:50;;;;;;;1.53;1.53;;;;;;;;;;4971785;28;20416;-77
2023/12/25 09:36:16;;;;;;;1.60;1.40;;;;;;;;;;4972766;28;20407;-78
2023/12/25 09:38:42;;;;;;;1.97;1.73;;;;;;;;;;4972985;28;20412;-78
2023/12/25 09:41:11;;;;;;;2.63;1.60;;;;;;;;;;4972860;28;20436;-78
2023/12/25 09:43:42;;;;;;;2.30;1.40;;;;;;;;;;4972700;28;20499;-78
2023/12/25 09:46:10;;;;;;;3.57;1.50;;;;;;;;;;4973154;28;20467;-78
2023/12/25 09:48:38;;;;;;;2.67;1.87;;;;;;;;;;4972843;28;20412;-78
2023/12/25 09:51:05;;;;;;;1.30;1.20;;;;;;;;;;4973911;28;20428;-77
2023/12/25 09:53:31;;;;;;;2.63;1.13;;;;;;;;;;4976338;28;20498;-79
2023/12/25 09:55:58;;;;;;;1.50;1.40;;;;;;;;;;4975271;28;20467;-78
2023/12/25 09:58:24;;;;;;;1.23;1.13;;;;;;;;;;4976450;28;20412;-77
2023/12/25 10:00:50;;;;;;;1.70;1.53;;;;;;;;;;4976251;28;20799;-77
2023/12/25 10:03:17;;;;;;;2.73;1.33;;;;;;;;;;4976321;28;20412;-78
2023/12/25 10:05:43;;;;;;;1.97;1.30;;;;;;;;;;4976436;28;20462;-80
2023/12/25 10:08:09;;;;;;;1.53;1.33;;;;;;;;;;4976121;28;20918;-80
2023/12/25 10:10:36;;;;;;;2.63;1.00;;;;;;;;;;4976010;28;20427;-76
2023/12/25 10:13:02;;;;;;;1.67;1.40;;;;;;;;;;4975948;28;20420;-78
2023/12/25 10:15:28;;;;;;;1.30;1.20;;;;;;;;;;4976201;28;20929;-77
2023/12/25 10:18:04;;;;;;;1.33;1.17;;;;;;;;;;4976302;28;20419;-78
2023/12/25 10:20:30;;;;;;;2.80;1.23;;;;;;;;;;4976194;28;20427;-78
2023/12/25 10:22:57;;;;;;;2.90;1.40;;;;;;;;;;4975970;28;20416;-78
2023/12/25 10:25:28;;;;;;;2.40;1.07;;;;;;;;;;4975093;28;20452;-78
2023/12/25 10:27:54;;;;;;;3.73;1.33;;;;;;;;;;4977025;28;20423;-78
2023/12/25 10:30:21;;;;;;;1.50;1.10;;;;;;;;;;4976441;28;20434;-79
2023/12/25 10:32:47;;;;;;;1.10;1.00;;;;;;;;;;4976298;28;20400;-78
2023/12/25 10:35:18;;;;;;;5.03;1.43;;;;;;;;;;4976014;28;20408;-78
2023/12/25 10:37:45;;;;;;;4.50;1.53;;;;;;;;;;4975946;28;20451;-78
2023/12/25 10:40:21;;;;;;;4.07;1.33;;;;;;;;;;4975585;28;20444;-77
2023/12/25 10:42:50;;;;;;;1.67;1.40;;;;;;;;;;4975439;28;20446;-78
2023/12/25 10:45:23;;;;;;;4.97;1.40;;;;;;;;;;4975642;28;20404;-79
2023/12/25 10:47:50;;;;;;;1.27;1.00;;;;;;;;;;4974240;28;20838;-78
2023/12/25 10:50:18;;;;;;;1.40;1.33;;;;;;;;;;4973944;28;20424;-78
2023/12/25 10:52:45;;;;;;;4.30;1.30;;;;;;;;;;4975168;28;20812;-79
2023/12/25 10:55:12;;;;;;;1.20;1.10;;;;;;;;;;4974155;28;20428;-78
2023/12/25 10:57:38;;;;;;;1.27;1.17;;;;;;;;;;4973969;28;20799;-77
2023/12/25 11:00:04;;;;;;;2.47;1.70;;;;;;;;;;4975260;28;20414;-78
2023/12/25 11:02:34;;;;;;;2.10;1.40;;;;;;;;;;4974282;28;20499;-79
2023/12/25 11:05:00;;;;;;;1.80;1.30;;;;;;;;;;4975132;28;20411;-77
2023/12/25 11:07:26;;;;;;;1.50;1.17;;;;;;;;;;4973850;28;20460;-77
2023/12/25 11:09:54;;;;;;;4.73;1.40;;;;;;;;;;4975263;28;20431;-77
2023/12/25 11:12:20;;;;;;;1.80;1.40;;;;;;;;;;4974845;28;20514;-77
2023/12/25 11:14:47;;;;;;;1.10;1.00;;;;;;;;;;4975371;28;20408;-78
2023/12/25 11:17:13;;;;;;;1.13;1.10;;;;;;;;;;4975093;28;20416;-79
2023/12/25 11:19:39;;;;;;;1.07;1.00;;;;;;;;;;4974911;28;20416;-78
2023/12/25 11:22:24;;;;;;;1.83;1.10;;;;;;;;;;4993802;28;20447;-77
2023/12/25 11:24:50;;;;;;;2.07;1.50;;;;;;;;;;4996441;28;20422;-78
2023/12/25 11:27:17;;;;;;;1.27;1.17;;;;;;;;;;4980600;28;20558;-74
2023/12/25 11:29:43;;;;;;;0.93;0.90;;;;;;;;;;4974752;28;20875;-73
2023/12/25 11:32:09;;;;;;;1.07;1.00;;;;;;;;;;4974442;28;20486;-74
2023/12/25 11:34:39;;;;;;;1.10;0.90;;;;;;;;;;4975711;28;20547;-75
2023/12/25 11:37:17;;;;;;;1.17;1.00;;;;;;;;;;4976171;28;20412;-72
2023/12/25 11:39:48;;;;;;;1.00;0.90;;;;;;;;;;4973398;28;20419;-72
2023/12/25 11:42:14;;;;;;;1.37;1.20;;;;;;;;;;4974903;28;20526;-72
2023/12/25 11:44:41;;;;;;;1.87;1.17;;;;;;;;;;4974876;28;20499;-74
2023/12/25 11:47:07;;;;;;;1.23;1.17;;;;;;;;;;4974457;28;20466;-74
2023/12/25 11:49:34;;;;;;;2.30;1.13;;;;;;;;;;4974281;28;20475;-74
2023/12/25 11:52:00;;;;;;;1.40;1.13;;;;;;;;;;4974072;28;20435;-73
2023/12/25 11:54:29;;;;;;;1.10;1.00;;;;;;;;;;4974096;28;20412;-73
2023/12/25 11:56:58;;;;;;;2.70;1.50;;;;;;;;;;4974232;28;20412;-73
2023/12/25 11:59:24;;;;;;;2.10;1.50;;;;;;;;;;4974077;28;20420;-73
2023/12/25 12:01:50;;;;;;;5.47;2.50;;;;;;;;;;4973756;28;20586;-73
2023/12/25 12:04:17;;;;;;;2.33;1.37;;;;;;;;;;4974107;28;20427;-73
2023/12/25 12:06:43;;;;;;;1.73;1.70;;;;;;;;;;4973904;28;20550;-73
2023/12/25 12:09:12;;;;;;;2.00;1.10;;;;;;;;;;4974161;28;20443;-73
2023/12/25 12:11:38;;;;;;;1.00;0.90;;;;;;;;;;4974117;28;20498;-73
2023/12/25 12:14:04;;;;;;;2.60;1.73;;;;;;;;;;4973486;28;20887;-73
2023/12/25 12:16:30;;;;;;;1.50;1.00;;;;;;;;;;4974782;28;20414;-73
2023/12/25 12:18:56;;;;;;;1.37;1.07;;;;;;;;;;4974182;28;20412;-74
2023/12/25 12:21:22;;;;;;;1.20;1.10;;;;;;;;;;4973646;28;20494;-74
2023/12/25 12:23:48;;;;;;;1.27;1.27;;;;;;;;;;4973893;28;20966;-74
2023/12/25 12:26:15;;;;;;;1.00;0.80;;;;;;;;;;4973730;28;20499;-74
2023/12/25 12:28:42;;;;;;;2.60;1.30;;;;;;;;;;4973922;28;20899;-74
2023/12/25 12:31:08;;;;;;;1.50;1.40;;;;;;;;;;4973744;28;20497;-74
2023/12/25 12:33:34;;;;;;;1.53;1.47;;;;;;;;;;4973452;28;20423;-74
2023/12/25 12:36:02;;;;;;;0.97;0.87;;;;;;;;;;4973735;28;20447;-74
2023/12/25 12:38:28;;;;;;;5.10;1.13;;;;;;;;;;4973551;28;20444;-74
2023/12/25 12:40:54;;;;;;;1.13;1.10;;;;;;;;;;4973253;28;21037;-74
2023/12/25 12:43:20;;;;;;;1.63;1.03;;;;;;;;;;4973193;28;20412;-73
2023/12/25 12:45:47;;;;;;;1.47;1.10;;;;;;;;;;4973293;28;20412;-74
2023/12/25 12:48:13;;;;;;;1.33;1.30;;;;;;;;;;4973556;28;20482;-74
2023/12/25 12:50:39;;;;;;;1.80;1.40;;;;;;;;;;4973115;28;20919;-73
2023/12/25 12:53:04;;;;;;;2.50;1.30;;;;;;;;;;4973173;28;20507;-74
2023/12/25 12:55:33;;;;;;;0.80;0.80;;;;;;;;;;4973143;28;20412;-72
2023/12/25 12:57:59;;;;;;;1.37;1.00;;;;;;;;;;4973453;28;20474;-73
2023/12/25 13:00:25;;;;;;;0.90;0.80;;;;;;;;;;4974170;28;20416;-73
2023/12/25 13:02:52;;;;;;;1.33;0.90;;;;;;;;;;4973024;28;20435;-73
2023/12/25 13:05:19;;;;;;;1.47;1.00;;;;;;;;;;4971877;28;20423;-73
2023/12/25 13:07:45;;;;;;;1.10;0.90;;;;;;;;;;4973145;28;20567;-75
2023/12/25 13:10:10;;;;;;;1.37;0.90;;;;;;;;;;4973118;28;20494;-75
2023/12/25 13:12:36;;;;;;;3.60;1.20;;;;;;;;;;4973088;28;20419;-74
2023/12/25 13:15:03;;;;;;;2.40;1.20;;;;;;;;;;4973526;28;20499;-74
2023/12/25 13:17:29;;;;;;;4.33;1.47;;;;;;;;;;4974599;28;20918;-74
2023/12/25 13:19:55;;;;;;;1.53;1.20;;;;;;;;;;4973756;28;20412;-74
2023/12/25 13:22:22;;;;;;;1.70;1.20;;;;;;;;;;4972765;28;20436;-74
2023/12/25 13:24:48;;;;;;;1.63;1.40;;;;;;;;;;4974109;28;20495;-75
2023/12/25 13:27:14;;;;;;;1.10;1.10;;;;;;;;;;4977133;28;20533;-74
2023/12/25 13:29:40;;;;;;;2.20;1.47;;;;;;;;;;4977147;28;20411;-74
2023/12/25 13:32:06;;;;;;;2.30;1.30;;;;;;;;;;4976888;28;20428;-74
2023/12/25 13:34:32;;;;;;;3.70;1.80;;;;;;;;;;4976895;28;20439;-74
2023/12/25 13:36:58;;;;;;;3.17;1.33;;;;;;;;;;4977017;28;20443;-74
2023/12/25 13:39:24;;;;;;;1.53;1.43;;;;;;;;;;4977000;28;20421;-74
2023/12/25 13:41:50;;;;;;;0.97;0.90;;;;;;;;;;4976537;28;20867;-74
2023/12/25 13:44:16;;;;;;;1.30;1.27;;;;;;;;;;4976955;28;20422;-74
2023/12/25 13:46:42;;;;;;;5.13;1.93;;;;;;;;;;4976581;28;20547;-73
2023/12/25 13:49:08;;;;;;;8.83;4.20;;;;;;;;;;4976877;28;20412;-74
2023/12/25 13:51:34;;;;;;;9.57;4.03;;;;;;;;;;4976506;28;20893;-73
2023/12/25 13:54:00;;;;;;;4.27;2.40;;;;;;;;;;4976620;28;20408;-73
2023/12/25 13:56:27;;;;;;;6.23;2.13;;;;;;;;;;4976703;28;20498;-74
2023/12/25 13:58:53;;;;;;;2.57;1.30;;;;;;;;;;4976721;28;20407;-74
2023/12/25 14:01:19;;;;;;;2.70;2.03;;;;;;;;;;4976292;28;20454;-74
2023/12/25 14:03:45;;;;;;;3.10;1.20;;;;;;;;;;4987458;28;20507;-73
2023/12/25 14:06:11;;;;;;;1.70;1.40;;;;;;;;;;4978075;28;20463;-73
2023/12/25 14:08:37;;;;;;;2.13;1.53;;;;;;;;;;4975177;28;20424;-73
2023/12/25 14:11:03;;;;;;;1.70;1.27;;;;;;;;;;4976430;28;20440;-74
2023/12/25 14:13:29;;;;;;;2.17;1.17;;;;;;;;;;4976320;28;20922;-73
2023/12/25 14:15:55;;;;;;;2.40;1.60;;;;;;;;;;4982840;28;20483;-72
2023/12/25 14:18:21;;;;;;;4.57;1.20;;;;;;;;;;4985389;28;20794;-73
2023/12/25 14:20:47;;;;;;;1.93;1.30;;;;;;;;;;4976519;28;20428;-73
2023/12/25 14:23:13;;;;;;;2.67;1.27;;;;;;;;;;4975997;28;20799;-73
2023/12/25 14:25:39;;;;;;;1.20;1.10;;;;;;;;;;4976219;28;20443;-73
2023/12/25 14:28:05;;;;;;;2.70;1.63;;;;;;;;;;4975930;28;20907;-73
2023/12/25 14:30:31;;;;;;;3.43;1.80;;;;;;;;;;4990195;28;20428;-73
2023/12/25 14:32:58;;;;;;;5.17;2.40;;;;;;;;;;4976220;28;20408;-74
2023/12/25 14:35:24;;;;;;;1.73;1.63;;;;;;;;;;4976292;28;20408;-73
2023/12/25 14:37:50;;;;;;;6.37;2.10;;;;;;;;;;4974073;28;20424;-73
2023/12/25 14:40:16;;;;;;;4.17;1.70;;;;;;;;;;4975860;28;20908;-73
2023/12/25 14:42:42;;;;;;;2.03;1.70;;;;;;;;;;4975616;28;20431;-73
2023/12/25 14:45:08;;;;;;;1.83;1.30;;;;;;;;;;4974205;28;20415;-73
2023/12/25 14:47:34;;;;;;;2.50;1.70;;;;;;;;;;4975346;28;20502;-73
2023/12/25 14:50:00;;;;;;;2.27;1.40;;;;;;;;;;4975272;28;20408;-73
2023/12/25 14:52:26;;;;;;;1.37;1.10;;;;;;;;;;4973893;28;20502;-73
2023/12/25 14:54:52;;;;;;;2.30;1.10;;;;;;;;;;4975654;28;20507;-73
2023/12/25 14:57:19;;;;;;;1.30;1.20;;;;;;;;;;4975673;28;20407;-73
2023/12/25 14:59:45;;;;;;;1.33;1.27;;;;;;;;;;4975366;28;20462;-73
2023/12/25 15:02:11;;;;;;;2.30;1.20;;;;;;;;;;4974109;28;20460;-73
2023/12/25 15:04:37;;;;;;;1.90;1.17;;;;;;;;;;4975249;28;20977;-73
2023/12/25 15:07:03;;;;;;;1.30;1.20;;;;;;;;;;4975065;28;20468;-73
2023/12/25 15:09:29;;;;;;;1.43;1.17;;;;;;;;;;4975111;28;20809;-73
2023/12/25 15:11:55;;;;;;;2.30;1.30;;;;;;;;;;4975094;28;20441;-74
2023/12/25 15:14:21;;;;;;;2.53;1.30;;;;;;;;;;4975276;28;20750;-73
2023/12/25 15:16:47;;;;;;;1.00;0.90;;;;;;;;;;4975126;28;20416;-73
2023/12/25 15:19:13;;;;;;;1.33;1.00;;;;;;;;;;4975253;28;20439;-73
2023/12/25 15:21:39;;;;;;;1.20;1.10;;;;;;;;;;4974869;28;20436;-73
2023/12/25 15:24:06;;;;;;;2.83;1.67;;;;;;;;;;4975012;28;20419;-73
2023/12/25 15:26:32;;;;;;;4.07;1.73;;;;;;;;;;4974954;28;20514;-73
2023/12/25 15:28:58;;;;;;;4.63;2.30;;;;;;;;;;4974697;28;20408;-73
2023/12/25 15:31:24;;;;;;;7.23;2.60;;;;;;;;;;4973319;28;20440;-73
2023/12/25 15:33:50;;;;;;;8.63;3.80;;;;;;;;;;4974765;28;20415;-73
2023/12/25 15:36:21;;;;;;;17.53;4.90;;;;;;;;;;4974772;28;20412;-74
2023/12/25 15:38:47;;;;;;;7.13;3.50;;;;;;;;;;4974660;28;20439;-74
2023/12/25 15:41:13;;;;;;;5.17;3.03;;;;;;;;;;4974558;28;20440;-73
2023/12/25 15:43:39;;;;;;;5.20;2.70;;;;;;;;;;4974357;28;20412;-74
2023/12/25 15:46:05;;;;;;;6.43;2.80;;;;;;;;;;4974507;28;21147;-74
2023/12/25 15:48:33;;;;;;;5.10;3.10;;;;;;;;;;4974466;28;20491;-74
2023/12/25 15:50:59;;;;;;;4.37;2.03;;;;;;;;;;4974313;28;20423;-73
2023/12/25 15:53:25;;;;;;;6.80;2.10;;;;;;;;;;4974364;28;20571;-73
2023/12/25 15:55:51;;;;;;;2.97;1.97;;;;;;;;;;4976830;28;20415;-74
2023/12/25 15:58:17;;;;;;;3.70;2.17;;;;;;;;;;4990403;28;20400;-74
2023/12/25 16:00:43;;;;;;;5.73;2.50;;;;;;;;;;4985180;28;20435;-74
2023/12/25 16:03:10;;;;;;;10.60;4.20;;;;;;;;;;4976224;28;20478;-73
2023/12/25 16:05:36;;;;;;;2.87;2.50;;;;;;;;;;4975512;28;20450;-74
2023/12/25 16:08:02;;;;;;;5.07;2.10;;;;;;;;;;4975176;28;20486;-74
2023/12/25 16:10:28;;;;;;;4.47;2.90;;;;;;;;;;4974829;28;20423;-73
2023/12/25 16:12:54;;;;;;;3.63;2.83;;;;;;;;;;4973490;28;20420;-74
2023/12/25 16:15:20;;;;;;;12.80;5.10;;;;;;;;;;4974539;28;20423;-73
2023/12/25 16:17:47;;;;;;;9.03;4.20;;;;;;;;;;4974892;28;20420;-73
2023/12/25 16:20:13;;;;;;;6.80;2.60;;;;;;;;;;4974147;28;20407;-74
2023/12/25 16:22:39;;;;;;;3.73;2.20;;;;;;;;;;4974323;28;20412;-74
2023/12/25 16:25:06;;;;;;;9.77;3.47;;;;;;;;;;4974279;28;20440;-74
2023/12/25 16:27:32;;;;;;;8.83;4.60;;;;;;;;;;4975078;28;20501;-73
2023/12/25 16:29:58;;;;;;;8.87;4.37;;;;;;;;;;4974630;28;20830;-74
2023/12/25 16:32:24;;;;;;;10.50;4.17;;;;;;;;;;4976072;28;20435;-73
2023/12/25 16:34:50;;;;;;;10.10;4.67;;;;;;;;;;4977681;28;20400;-73
2023/12/25 16:37:16;;;;;;;11.63;4.60;;;;;;;;;;4974722;28;20408;-73
2023/12/25 16:39:42;;;;;;;6.77;2.77;;;;;;;;;;4974477;28;20429;-73
2023/12/25 16:42:09;;;;;;;5.70;2.17;;;;;;;;;;4974082;28;20486;-73
2023/12/25 16:44:35;;;;;;;2.73;2.37;;;;;;;;;;4974341;28;20462;-73
2023/12/25 16:47:00;;;;;;;5.27;2.83;;;;;;;;;;4972674;28;20479;-73
2023/12/25 16:49:27;;;;;;;4.70;2.40;;;;;;;;;;4973948;28;20441;-74
2023/12/25 16:51:53;;;;;;;6.20;3.00;;;;;;;;;;4973677;28;20423;-73
2023/12/25 16:54:18;;;;;;;6.77;3.03;;;;;;;;;;4974438;28;20499;-74
2023/12/25 16:56:46;;;;;;;6.07;3.50;;;;;;;;;;4973604;28;20899;-74
2023/12/25 16:59:12;;;;;;;4.70;3.13;;;;;;;;;;4973390;28;20778;-74
2023/12/25 17:01:38;;;;;;;6.50;3.83;;;;;;;;;;4973503;28;20456;-73
2023/12/25 17:04:04;;;;;;;7.40;4.17;;;;;;;;;;4973623;28;20911;-73
2023/12/25 17:06:30;;;;;;;3.73;2.57;;;;;;;;;;4973628;28;20482;-73
2023/12/25 17:08:56;;;;;;;4.27;2.10;;;;;;;;;;4973661;28;20780;-73
2023/12/25 17:11:22;;;;;;;5.60;2.70;;;;;;;;;;4973301;28;20661;-73
2023/12/25 17:13:50;;;;;;;4.23;1.93;;;;;;;;;;4972366;28;20423;-73
2023/12/25 17:16:16;;;;;;;3.17;1.90;;;;;;;;;;4973958;28;20419;-73
2023/12/25 17:18:42;;;;;;;4.00;2.00;;;;;;;;;;4974079;28;20482;-73
2023/12/25 17:21:10;;;;;;;2.47;1.83;;;;;;;;;;4973494;28;20436;-74
2023/12/25 17:23:36;;;;;;;2.13;1.90;;;;;;;;;;4971984;28;20773;-74
2023/12/25 17:26:03;;;;;;;2.33;1.63;;;;;;;;;;4972896;28;21122;-73
2023/12/25 17:28:29;;;;;;;4.27;2.30;;;;;;;;;;4973134;28;20404;-74
2023/12/25 17:30:56;;;;;;;2.87;1.57;;;;;;;;;;4973367;28;20427;-74
2023/12/25 17:33:22;;;;;;;5.27;1.80;;;;;;;;;;4972997;28;20416;-73
2023/12/25 17:35:48;;;;;;;2.07;1.53;;;;;;;;;;4973179;28;20884;-74
2023/12/25 17:38:15;;;;;;;2.60;2.07;;;;;;;;;;4971696;28;20423;-74
2023/12/25 17:40:41;;;;;;;2.10;1.70;;;;;;;;;;4973124;28;21139;-73
2023/12/25 17:43:06;;;;;;;4.87;1.73;;;;;;;;;;4972634;28;20474;-74
2023/12/25 17:45:32;;;;;;;2.70;1.90;;;;;;;;;;4971761;28;20420;-73
2023/12/25 17:47:58;;;;;;;4.50;2.43;;;;;;;;;;4972757;28;20467;-74
2023/12/25 17:50:25;;;;;;;8.33;3.67;;;;;;;;;;4972738;28;20407;-74
2023/12/25 17:52:51;;;;;;;7.20;2.90;;;;;;;;;;4973323;28;20408;-73
2023/12/25 17:55:17;;;;;;;7.30;2.27;;;;;;;;;;4973559;28;20462;-74
2023/12/25 17:57:43;;;;;;;3.20;2.40;;;;;;;;;;4972991;28;20899;-73
2023/12/25 18:00:09;;;;;;;4.10;3.07;;;;;;;;;;4973584;28;20419;-73
2023/12/25 18:02:36;;;;;;;4.70;2.93;;;;;;;;;;4973173;28;20471;-74
2023/12/25 18:05:02;;;;;;;2.57;1.90;;;;;;;;;;4972578;28;20404;-73
2023/12/25 18:07:28;;;;;;;2.03;1.60;;;;;;;;;;4971473;28;20932;-73
2023/12/25 18:09:54;;;;;;;6.30;2.30;;;;;;;;;;4973073;28;20535;-74
2023/12/25 18:12:21;;;;;;;4.37;1.80;;;;;;;;;;4973975;28;20830;-73
2023/12/25 18:14:47;;;;;;;6.67;3.83;;;;;;;;;;4976714;28;20413;-73
2023/12/25 18:17:13;;;;;;;8.60;2.80;;;;;;;;;;4976267;28;20412;-73
2023/12/25 18:19:39;;;;;;;2.97;1.97;;;;;;;;;;4976308;28;20416;-73
2023/12/25 18:22:05;;;;;;;3.50;2.20;;;;;;;;;;4975845;28;20742;-73
2023/12/25 18:24:31;;;;;;;3.10;1.97;;;;;;;;;;4975897;28;20418;-73
2023/12/25 18:26:57;;;;;;;6.33;2.90;;;;;;;;;;4975713;28;20491;-74
2023/12/25 18:29:23;;;;;;;4.07;2.73;;;;;;;;;;4974656;28;20434;-74
2023/12/25 18:31:49;;;;;;;8.60;3.13;;;;;;;;;;4975716;28;20468;-73
2023/12/25 18:34:15;;;;;;;5.03;2.80;;;;;;;;;;4975805;28;20622;-74
2023/12/25 18:36:41;;;;;;;5.77;3.00;;;;;;;;;;4975803;28;20434;-74
2023/12/25 18:39:07;;;;;;;4.27;2.77;;;;;;;;;;4975722;28;20474;-74
2023/12/25 18:41:34;;;;;;;3.83;2.47;;;;;;;;;;4975588;28;20825;-74
2023/12/25 18:44:00;;;;;;;6.30;2.57;;;;;;;;;;4975715;28;20412;-74
2023/12/25 18:46:26;;;;;;;5.40;2.13;;;;;;;;;;4975507;28;20464;-73
2023/12/25 18:48:52;;;;;;;3.97;2.03;;;;;;;;;;4975482;28;20400;-73
2023/12/25 18:51:18;;;;;;;5.50;2.50;;;;;;;;;;4975570;28;20962;-74
2023/12/25 18:53:45;;;;;;;4.77;2.40;;;;;;;;;;4975461;28;20411;-74
2023/12/25 18:56:11;;;;;;;3.73;2.53;;;;;;;;;;4975414;28;20919;-74
2023/12/25 18:58:37;;;;;;;3.40;2.10;;;;;;;;;;4975445;28;20499;-74
2023/12/25 19:01:03;;;;;;;5.57;2.93;;;;;;;;;;4973912;28;20542;-74
2023/12/25 19:03:29;;;;;;;3.80;2.27;;;;;;;;;;4975381;28;20412;-74
2023/12/25 19:05:55;;;;;;;3.53;2.23;;;;;;;;;;4973986;28;20451;-74
2023/12/25 19:08:21;;;;;;;4.17;1.90;;;;;;;;;;4975192;28;20444;-73
2023/12/25 19:10:47;;;;;;;4.67;2.60;;;;;;;;;;4975605;28;20436;-74
2023/12/25 19:13:13;;;;;;;3.03;2.00;;;;;;;;;;4975146;28;20961;-73
2023/12/25 19:15:40;;;;;;;7.30;2.70;;;;;;;;;;4975417;28;20416;-74
2023/12/25 19:18:06;;;;;;;2.23;2.10;;;;;;;;;;4975215;28;20845;-74
2023/12/25 19:20:34;;;;;;;2.03;1.80;;;;;;;;;;4975028;28;20438;-73
2023/12/25 19:23:02;;;;;;;3.60;2.30;;;;;;;;;;4974246;28;20420;-74
2023/12/25 19:25:28;;;;;;;8.73;2.57;;;;;;;;;;4974888;28;20424;-74
2023/12/25 19:27:54;;;;;;;3.97;2.50;;;;;;;;;;4974872;28;20566;-74
2023/12/25 19:30:20;;;;;;;6.20;2.83;;;;;;;;;;4974818;28;20452;-73
2023/12/25 19:32:46;;;;;;;5.40;2.70;;;;;;;;;;4974747;28;20451;-74
2023/12/25 19:35:12;;;;;;;2.33;2.00;;;;;;;;;;4973671;28;20424;-73
2023/12/25 19:37:38;;;;;;;3.43;1.97;;;;;;;;;;4975301;28;20423;-73
2023/12/25 19:40:05;;;;;;;4.50;3.30;;;;;;;;;;4974853;28;20923;-73
2023/12/25 19:42:31;;;;;;;6.70;2.30;;;;;;;;;;4974567;28;20436;-74
2023/12/25 19:44:57;;;;;;;6.70;2.60;;;;;;;;;;4974839;28;20776;-73
2023/12/25 19:47:23;;;;;;;3.43;2.13;;;;;;;;;;4974631;28;20553;-73
2023/12/25 19:49:49;;;;;;;4.00;2.10;;;;;;;;;;4974583;28;20412;-74
2023/12/25 19:52:15;;;;;;;5.60;2.27;;;;;;;;;;4974372;28;20438;-74
2023/12/25 19:54:41;;;;;;;1.90;1.80;;;;;;;;;;4973262;28;20416;-74
2023/12/25 19:57:07;;;;;;;2.00;1.90;;;;;;;;;;4974507;28;20415;-73
2023/12/25 19:59:33;;;;;;;2.90;2.20;;;;;;;;;;4974349;28;20788;-73
2023/12/25 20:01:59;;;;;;;3.03;2.30;;;;;;;;;;4974092;28;20462;-74
2023/12/25 20:04:25;;;;;;;3.50;2.60;;;;;;;;;;4974393;28;20424;-74
2023/12/25 20:06:51;;;;;;;9.10;3.13;;;;;;;;;;4972749;28;20474;-73
2023/12/25 20:09:17;;;;;;;3.43;2.20;;;;;;;;;;4974231;28;20407;-73
2023/12/25 20:11:43;;;;;;;6.00;1.80;;;;;;;;;;4974172;28;20450;-74
2023/12/25 20:14:09;;;;;;;2.30;1.70;;;;;;;;;;4974123;28;20408;-74
2023/12/25 20:16:37;;;;;;;3.20;1.73;;;;;;;;;;4974155;28;20470;-74
2023/12/25 20:19:03;;;;;;;4.20;1.90;;;;;;;;;;4972768;28;20938;-75
2023/12/25 20:21:31;;;;;;;6.33;2.03;;;;;;;;;;4973676;28;20463;-74
2023/12/25 20:23:57;;;;;;;3.13;1.83;;;;;;;;;;4972917;28;21060;-74
2023/12/25 20:26:23;;;;;;;3.00;1.80;;;;;;;;;;4973714;28;20455;-74
2023/12/25 20:28:49;;;;;;;4.33;2.03;;;;;;;;;;4972687;28;20475;-74
2023/12/25 20:31:15;;;;;;;2.87;2.13;;;;;;;;;;4974337;28;20502;-74
2023/12/25 20:33:42;;;;;;;2.40;2.20;;;;;;;;;;4973654;28;20933;-74
2023/12/25 20:36:08;;;;;;;2.43;1.90;;;;;;;;;;4979009;28;20456;-74
2023/12/25 20:38:34;;;;;;;3.57;1.93;;;;;;;;;;4982529;28;20491;-74
2023/12/25 20:41:01;;;;;;;2.57;1.53;;;;;;;;;;4978160;28;20526;-74